createdAt,value
2018-08-03T00:01:19.036Z,6.93
2018-08-03T00:03:47.989Z,5.80
2018-08-03T00:06:16.896Z,6.90
2018-08-03T00:08:45.752Z,5.13
2018-08-03T00:11:14.612Z,5.60
2018-08-03T00:13:43.491Z,6.77
2018-08-03T00:16:12.398Z,5.83
2018-08-03T00:18:41.277Z,5.63
2018-08-03T00:21:10.161Z,4.80
2018-08-03T00:23:39.042Z,4.30
2018-08-03T00:26:07.920Z,6.20
2018-08-03T00:28:36.784Z,6.53
2018-08-03T00:31:05.632Z,5.30
2018-08-03T00:33:35.015Z,7.70
2018-08-03T00:36:04.075Z,6.83
2018-08-03T00:38:33.164Z,5.13
2018-08-03T00:41:02.044Z,8.67
2018-08-03T00:43:30.920Z,6.07
2018-08-03T00:45:59.772Z,5.60
2018-08-03T00:48:28.656Z,5.43
2018-08-03T00:50:57.561Z,7.17
2018-08-03T00:53:26.524Z,8.23
2018-08-03T00:55:55.417Z,5.30
2018-08-03T00:58:24.255Z,5.00
2018-08-03T01:00:53.125Z,6.80
2018-08-03T01:03:22.064Z,4.80
2018-08-03T01:05:50.922Z,7.53
2018-08-03T01:08:19.764Z,6.83
2018-08-03T01:10:48.652Z,6.77
2018-08-03T01:13:17.548Z,6.40
2018-08-03T01:15:46.458Z,8.03
2018-08-03T01:18:15.325Z,5.53
2018-08-03T01:20:44.178Z,6.80
2018-08-03T01:23:13.088Z,7.40
2018-08-03T01:25:41.983Z,8.27
2018-08-03T01:28:10.834Z,6.90
2018-08-03T02:52:38.030Z,10.00
2018-08-03T02:55:06.888Z,9.70
2018-08-03T02:57:35.740Z,11.27
2018-08-03T03:00:04.651Z,7.77
2018-08-03T03:02:33.516Z,7.20
2018-08-03T03:05:02.395Z,10.43
2018-08-03T03:07:31.265Z,9.37
2018-08-03T03:10:00.148Z,8.93
2018-08-03T03:12:29.239Z,7.83
2018-08-03T03:14:58.210Z,9.20
2018-08-03T03:17:27.109Z,11.13
2018-08-03T03:19:55.965Z,10.20
2018-08-03T03:22:24.818Z,8.50
2018-08-03T03:24:54.300Z,8.07
2018-08-03T03:27:23.166Z,10.30
2018-08-03T03:29:52.062Z,9.77
2018-08-03T03:32:20.944Z,7.40
2018-08-03T03:34:49.784Z,8.13
2018-08-03T03:37:18.639Z,9.67
2018-08-03T03:39:47.501Z,11.30
2018-08-03T03:42:16.385Z,12.27
2018-08-03T03:44:45.237Z,9.87
2018-08-03T03:47:14.088Z,8.00
2018-08-03T03:49:42.948Z,7.93
2018-08-03T03:52:12.425Z,9.20
2018-08-03T03:54:41.546Z,9.63
2018-08-03T03:57:10.473Z,10.00
2018-08-03T03:59:39.360Z,10.20
2018-08-03T04:02:08.308Z,9.53
2018-08-03T04:09:52.784Z,9.93
2018-08-03T04:12:21.670Z,13.07
2018-08-03T04:14:50.577Z,10.60
2018-08-03T04:17:19.472Z,10.90
2018-08-03T04:19:48.380Z,13.07
2018-08-03T04:22:16.844Z,11.30
2018-08-03T04:24:45.772Z,8.57
2018-08-03T04:27:14.203Z,9.83
2018-08-03T04:29:43.053Z,9.03
2018-08-03T04:32:11.964Z,7.53
2018-08-03T04:34:40.851Z,11.47
2018-08-03T04:37:09.742Z,9.20
2018-08-03T04:39:38.637Z,11.83
2018-08-03T04:42:07.501Z,8.10
2018-08-03T04:44:36.385Z,7.57
2018-08-03T04:47:05.394Z,7.97
2018-08-03T04:49:34.288Z,8.70
2018-08-03T04:52:03.229Z,7.07
2018-08-03T04:54:32.198Z,11.33
2018-08-03T04:57:01.114Z,10.20
2018-08-03T04:59:30.183Z,10.47
2018-08-03T06:23:57.501Z,14.10
2018-08-03T06:26:26.368Z,15.90
2018-08-03T06:28:55.250Z,17.13
2018-08-03T06:31:24.130Z,10.40
2018-08-03T06:33:53.000Z,13.43
2018-08-03T06:36:21.890Z,12.23
2018-08-03T06:38:50.874Z,12.73
2018-08-03T06:41:19.749Z,11.83
2018-08-03T06:43:48.592Z,9.07
2018-08-03T06:46:17.451Z,13.33
2018-08-03T06:48:46.348Z,15.60
2018-08-03T06:51:15.215Z,13.57
2018-08-03T06:53:44.105Z,11.77
2018-08-03T06:56:13.005Z,10.77
2018-08-03T06:58:42.460Z,15.53
2018-08-03T07:01:11.353Z,13.17
2018-08-03T07:03:40.207Z,13.73
2018-08-03T07:06:09.181Z,10.93
2018-08-03T07:08:38.084Z,10.17
2018-08-03T07:11:07.176Z,10.25
2018-08-03T07:13:36.392Z,14.27
2018-08-03T07:16:05.841Z,8.80
2018-08-03T07:18:34.885Z,6.53
2018-08-03T07:21:04.511Z,7.30
2018-08-03T07:23:33.904Z,8.40
2018-08-03T07:26:04.330Z,11.97
2018-08-03T07:28:33.324Z,9.83
2018-08-03T07:31:02.236Z,10.93
2018-08-03T07:33:31.209Z,8.13
2018-08-03T07:36:00.283Z,6.77
2018-08-03T07:38:29.242Z,10.90
2018-08-03T07:40:58.234Z,7.97
2018-08-03T07:43:27.213Z,8.90
2018-08-03T07:45:56.187Z,9.67
2018-08-03T07:48:25.087Z,8.03
2018-08-03T07:50:53.998Z,9.37
2018-08-03T07:53:22.947Z,6.00
2018-08-03T07:55:51.967Z,7.73
2018-08-03T07:58:20.920Z,8.63
2018-08-03T08:00:50.041Z,6.97
2018-08-03T08:03:19.027Z,10.60
2018-08-03T08:05:47.945Z,10.20
2018-08-03T08:08:16.825Z,7.93
2018-08-03T08:10:45.703Z,9.83
2018-08-03T08:13:14.648Z,5.83
2018-08-03T08:15:43.742Z,6.97
2018-08-03T08:18:12.700Z,8.07
2018-08-03T08:20:41.828Z,10.70
2018-08-03T08:23:10.793Z,9.73
2018-08-03T08:25:39.752Z,10.37
2018-08-03T08:28:08.868Z,8.57
2018-08-03T08:30:37.818Z,7.53
2018-08-03T08:33:06.722Z,8.20
2018-08-03T08:35:35.766Z,6.33
2018-08-03T08:38:04.677Z,7.60
2018-08-03T08:40:34.633Z,6.23
2018-08-03T08:43:03.673Z,5.90
2018-08-03T08:45:32.558Z,5.93
2018-08-03T08:48:01.426Z,8.03
2018-08-03T08:50:30.305Z,5.77
2018-08-03T08:52:59.491Z,5.60
2018-08-03T08:55:28.474Z,4.27
2018-08-03T08:57:57.525Z,6.47
2018-08-03T09:00:26.392Z,5.10
2018-08-03T09:02:55.377Z,4.27
2018-08-03T09:05:24.321Z,4.50
2018-08-03T09:07:53.209Z,6.53
2018-08-03T09:10:22.045Z,5.60
2018-08-03T09:12:50.963Z,3.70
2018-08-03T09:15:19.827Z,4.43
2018-08-03T09:17:48.723Z,4.60
2018-08-03T09:20:17.622Z,9.03
2018-08-03T09:22:46.504Z,5.80
2018-08-03T09:25:14.964Z,11.70
2018-08-03T09:27:43.828Z,3.17
2018-08-03T09:30:12.761Z,4.73
2018-08-03T09:32:41.653Z,5.73
2018-08-03T09:35:10.551Z,8.40
2018-08-03T09:37:39.004Z,4.30
2018-08-03T09:40:07.978Z,3.17
2018-08-03T09:42:36.903Z,3.47
2018-08-03T09:45:05.783Z,6.33
2018-08-03T09:47:34.652Z,5.87
2018-08-03T09:50:03.531Z,5.03
2018-08-03T09:52:32.449Z,4.67
2018-08-03T09:55:01.349Z,5.80
2018-08-03T09:57:30.221Z,5.63
2018-08-03T09:59:59.073Z,6.77
2018-08-03T10:02:27.930Z,8.00
2018-08-03T10:04:56.788Z,4.67
2018-08-03T10:07:25.744Z,6.83
2018-08-03T10:09:54.644Z,6.13
2018-08-03T10:12:23.548Z,3.57
2018-08-03T10:14:52.450Z,4.80
2018-08-03T10:17:21.304Z,5.13
2018-08-03T10:19:49.811Z,4.73
2018-08-03T10:22:18.708Z,9.63
2018-08-03T10:24:47.567Z,4.37
2018-08-03T10:27:16.421Z,5.43
2018-08-03T10:29:45.291Z,3.87
2018-08-03T10:32:14.217Z,5.40
2018-08-03T10:34:43.073Z,3.03
2018-08-03T10:37:11.908Z,3.90
2018-08-03T10:39:40.837Z,4.53
2018-08-03T10:42:09.680Z,4.47
2018-08-03T10:44:38.181Z,5.00
2018-08-03T10:47:14.090Z,5.87
2018-08-03T10:49:42.931Z,4.80
2018-08-03T10:52:11.781Z,6.07
2018-08-03T10:54:40.696Z,5.90
2018-08-03T10:57:09.554Z,3.63
2018-08-03T10:59:38.935Z,7.00
2018-08-03T11:02:14.333Z,6.53
2018-08-03T11:04:58.838Z,6.87
2018-08-03T11:07:27.925Z,6.80
2018-08-03T11:09:56.785Z,7.50
2018-08-03T11:12:25.648Z,6.43
2018-08-03T11:14:54.518Z,4.73
2018-08-03T11:17:23.377Z,8.70
2018-08-03T11:19:52.259Z,4.83
2018-08-03T11:22:21.131Z,5.33
2018-08-03T11:24:49.992Z,3.57
2018-08-03T11:27:18.892Z,5.57
2018-08-03T11:29:47.762Z,6.33
2018-08-03T11:32:16.657Z,6.83
2018-08-03T11:34:45.522Z,5.20
2018-08-03T11:37:14.372Z,6.80
2018-08-03T11:39:43.292Z,4.37
2018-08-03T11:42:12.158Z,5.13
2018-08-03T11:44:41.057Z,6.87
2018-08-03T11:47:09.909Z,6.10
2018-08-03T11:49:38.760Z,8.13
2018-08-03T11:52:07.712Z,10.60
2018-08-03T11:54:36.689Z,5.93
2018-08-03T11:57:05.553Z,6.60
2018-08-03T11:59:34.425Z,4.50
2018-08-03T12:02:03.377Z,5.90
2018-08-03T12:04:32.236Z,5.80
2018-08-03T12:07:01.093Z,11.23
2018-08-03T12:09:29.966Z,10.13
2018-08-03T12:11:58.836Z,14.83
2018-08-03T12:14:27.697Z,9.83
2018-08-03T12:16:56.646Z,7.10
2018-08-03T12:19:25.517Z,6.63
2018-08-03T12:21:54.365Z,4.40
2018-08-03T12:24:23.204Z,7.63
2018-08-03T12:26:52.138Z,6.73
2018-08-03T12:29:21.036Z,5.73
2018-08-03T12:31:49.919Z,5.17
2018-08-03T12:34:18.849Z,11.93
2018-08-03T12:36:47.756Z,7.20
2018-08-03T12:39:16.624Z,7.97
2018-08-03T12:41:45.488Z,5.37
2018-08-03T12:44:14.336Z,8.93
2018-08-03T12:46:43.225Z,5.20
2018-08-03T12:49:12.169Z,2.70
2018-08-03T12:51:41.070Z,6.40
2018-08-03T12:54:09.968Z,6.63
2018-08-03T12:56:38.911Z,7.47
2018-08-03T12:59:07.876Z,5.17
2018-08-03T13:01:36.744Z,6.17
2018-08-03T13:04:05.711Z,5.10
2018-08-03T13:06:34.652Z,4.37
2018-08-03T13:09:03.221Z,5.43
2018-08-03T13:11:32.132Z,3.80
2018-08-03T13:14:01.122Z,5.10
2018-08-03T13:16:29.970Z,4.50
2018-08-03T13:18:58.956Z,3.60
2018-08-03T13:21:36.281Z,4.23
2018-08-03T13:24:05.370Z,11.57
2018-08-03T13:26:34.284Z,6.90
2018-08-03T13:29:03.161Z,6.40
2018-08-03T13:31:32.482Z,7.03
2018-08-03T13:34:01.352Z,10.53
2018-08-03T13:36:31.230Z,5.97
2018-08-03T13:39:00.154Z,10.27
2018-08-03T13:41:29.101Z,15.10
2018-08-03T13:43:57.972Z,7.77
2018-08-03T13:46:26.857Z,5.93
2018-08-03T13:48:55.753Z,3.87
2018-08-03T13:51:24.667Z,4.37
2018-08-03T13:53:53.536Z,4.70
2018-08-03T13:56:23.056Z,5.93
2018-08-03T13:58:51.627Z,2.73
2018-08-03T14:01:31.601Z,3.17
2018-08-03T14:04:00.573Z,2.37
2018-08-03T14:06:29.512Z,4.67
2018-08-03T14:08:58.452Z,3.27
2018-08-03T14:11:27.374Z,5.17
2018-08-03T14:13:56.240Z,4.50
2018-08-03T14:16:25.563Z,5.17
2018-08-03T14:18:54.516Z,4.00
2018-08-03T14:21:23.015Z,4.27
2018-08-03T14:23:51.877Z,5.67
2018-08-03T14:26:20.737Z,3.90
2018-08-03T14:28:49.614Z,3.90
2018-08-03T14:31:18.541Z,3.20
2018-08-03T14:33:47.482Z,3.07
2018-08-03T14:36:16.399Z,4.93
2018-08-03T14:38:45.431Z,2.47
2018-08-03T14:41:14.413Z,3.17
2018-08-03T14:43:44.445Z,5.57
2018-08-03T14:46:13.345Z,4.57
2018-08-03T14:48:43.247Z,4.30
2018-08-03T14:51:12.212Z,3.87
2018-08-03T14:53:41.089Z,3.80
2018-08-03T14:56:09.977Z,4.50
2018-08-03T14:58:38.871Z,4.13
2018-08-03T15:01:08.067Z,3.13
2018-08-03T15:03:36.888Z,5.00
2018-08-03T15:06:06.009Z,2.57
2018-08-03T15:08:34.460Z,7.23
2018-08-03T15:11:03.323Z,3.67
2018-08-03T15:13:32.217Z,10.00
2018-08-03T15:16:01.060Z,3.33
2018-08-03T15:18:30.954Z,2.83
2018-08-03T15:20:59.808Z,2.60
2018-08-03T15:23:28.797Z,5.33
2018-08-03T15:25:57.706Z,5.67
2018-08-03T15:28:26.574Z,6.97
2018-08-03T15:30:55.522Z,3.00
2018-08-03T15:33:24.677Z,3.33
2018-08-03T15:35:54.346Z,4.30
2018-08-03T15:38:23.237Z,4.07
2018-08-03T15:40:51.991Z,2.23
2018-08-03T15:43:20.876Z,4.07
2018-08-03T15:45:49.725Z,2.57
2018-08-03T15:48:18.881Z,3.87
2018-08-03T15:50:47.732Z,4.73
2018-08-03T15:53:16.569Z,2.13
2018-08-03T15:55:45.425Z,2.83
2018-08-03T15:58:14.324Z,2.80
2018-08-03T16:00:43.200Z,4.97
2018-08-03T16:03:12.084Z,4.27
2018-08-03T16:05:40.962Z,1.63
2018-08-03T16:08:09.858Z,2.97
2018-08-03T16:10:38.721Z,2.00
2018-08-03T16:13:07.650Z,3.90
2018-08-03T16:15:36.491Z,3.23
2018-08-03T16:18:05.464Z,3.80
2018-08-03T16:20:34.893Z,5.43
2018-08-03T16:23:04.213Z,11.57
2018-08-03T16:25:33.165Z,21.10
2018-08-03T16:28:03.221Z,7.20
2018-08-03T16:30:32.684Z,2.53
2018-08-03T16:33:01.600Z,4.60
2018-08-03T16:35:30.495Z,4.77
2018-08-03T16:37:59.378Z,1.83
2018-08-03T16:40:27.820Z,3.20
2018-08-03T16:42:56.708Z,3.43
2018-08-03T16:45:25.608Z,12.63
2018-08-03T16:47:54.781Z,7.63
2018-08-03T16:50:23.778Z,4.20
2018-08-03T16:52:52.637Z,6.30
2018-08-03T16:55:21.508Z,8.43
2018-08-03T16:57:50.373Z,7.90
2018-08-03T17:00:19.571Z,2.87
2018-08-03T17:02:48.985Z,5.43
2018-08-03T17:05:19.217Z,2.53
2018-08-03T17:07:48.085Z,2.50
2018-08-03T17:10:17.010Z,4.00
2018-08-03T17:12:45.985Z,6.87
2018-08-03T17:15:14.935Z,1.73
2018-08-03T17:17:44.183Z,5.60
2018-08-03T17:20:21.168Z,4.07
2018-08-03T17:22:50.269Z,4.90
2018-08-03T17:25:19.158Z,2.07
2018-08-03T17:27:48.002Z,8.17
2018-08-03T17:30:16.876Z,3.43
2018-08-03T17:32:45.774Z,6.23
2018-08-03T17:35:14.628Z,5.80
2018-08-03T17:37:43.494Z,7.47
2018-08-03T17:40:12.349Z,6.77
2018-08-03T17:42:41.394Z,4.37
2018-08-03T17:45:10.264Z,1.27
2018-08-03T17:47:39.159Z,1.50
2018-08-03T17:50:08.089Z,4.47
2018-08-03T17:52:37.112Z,4.63
2018-08-03T17:55:06.093Z,5.07
2018-08-03T17:57:34.970Z,7.30
2018-08-03T18:00:04.200Z,2.17
2018-08-03T18:02:33.048Z,3.47
2018-08-03T18:05:01.901Z,2.20
2018-08-03T18:07:31.397Z,5.43
2018-08-03T18:10:00.479Z,7.63
2018-08-03T18:12:30.329Z,3.90
2018-08-03T18:14:59.233Z,3.23
2018-08-03T18:17:28.122Z,8.87
2018-08-03T18:19:57.000Z,5.20
2018-08-03T18:22:25.876Z,5.07
2018-08-03T18:24:54.716Z,3.63
2018-08-03T18:27:23.594Z,2.57
2018-08-03T18:29:52.528Z,3.30
2018-08-03T18:32:21.674Z,4.77
2018-08-03T18:34:50.618Z,3.10
2018-08-03T18:37:19.585Z,4.20
2018-08-03T18:39:48.452Z,4.40
2018-08-03T18:42:17.313Z,4.20
2018-08-03T18:44:46.192Z,2.13
2018-08-03T18:47:15.072Z,3.73
2018-08-03T18:49:43.937Z,3.43
2018-08-03T18:52:12.864Z,2.80
2018-08-03T18:54:41.716Z,3.27
2018-08-03T18:57:10.556Z,1.73
2018-08-03T18:59:39.432Z,2.37
2018-08-03T19:02:08.318Z,2.97
2018-08-03T19:04:37.233Z,1.97
2018-08-03T19:07:06.097Z,5.27
2018-08-03T19:09:34.952Z,3.43
2018-08-03T19:12:04.087Z,3.50
2018-08-03T19:14:33.078Z,3.87
2018-08-03T19:17:01.995Z,2.90
2018-08-03T19:19:30.870Z,3.43
2018-08-03T19:21:59.924Z,3.97
2018-08-03T19:24:29.362Z,3.23
2018-08-03T19:26:58.229Z,5.40
2018-08-03T19:29:27.117Z,3.30
2018-08-03T19:31:56.022Z,3.53
2018-08-03T19:34:24.882Z,2.07
2018-08-03T19:36:53.785Z,2.90
2018-08-03T19:39:22.630Z,5.10
2018-08-03T19:41:51.527Z,2.30
2018-08-03T19:44:20.418Z,2.67
2018-08-03T19:46:50.193Z,3.47
2018-08-03T19:49:19.065Z,3.87
2018-08-03T19:51:48.053Z,5.37
2018-08-03T19:54:16.948Z,3.87
2018-08-03T19:56:46.050Z,2.53
2018-08-03T19:59:15.007Z,3.70
2018-08-03T20:01:43.893Z,2.67
2018-08-03T20:04:12.741Z,2.57
2018-08-03T20:06:41.265Z,3.17
2018-08-03T20:09:11.900Z,3.60
2018-08-03T20:11:41.080Z,2.37
2018-08-03T20:14:10.154Z,7.27
2018-08-03T20:16:39.148Z,4.00
2018-08-03T20:19:08.034Z,3.57
2018-08-03T20:21:36.892Z,4.30
2018-08-03T20:24:05.784Z,5.40
2018-08-03T20:26:34.701Z,2.33
2018-08-03T20:29:03.579Z,2.83
2018-08-03T20:31:32.630Z,2.73
2018-08-03T20:34:02.310Z,3.57
2018-08-03T20:36:31.193Z,3.90
2018-08-03T20:39:00.101Z,3.93
2018-08-03T20:41:29.634Z,4.60
2018-08-03T20:43:58.092Z,3.13
2018-08-03T20:46:26.961Z,4.37
2018-08-03T20:48:55.836Z,5.30
2018-08-03T20:51:29.205Z,2.60
2018-08-03T20:53:58.202Z,5.30
2018-08-03T20:56:27.100Z,3.20
2018-08-03T20:58:55.948Z,3.10
2018-08-03T21:01:24.815Z,5.63
2018-08-03T21:03:53.689Z,4.53
2018-08-03T21:06:23.172Z,5.93
2018-08-03T21:08:52.805Z,2.87
2018-08-03T21:11:21.688Z,7.23
2018-08-03T21:13:50.633Z,3.40
2018-08-03T21:16:19.494Z,1.77
2018-08-03T21:18:48.362Z,2.13
2018-08-03T21:21:17.218Z,3.07
2018-08-03T21:23:47.496Z,2.60
2018-08-03T21:26:16.401Z,2.70
2018-08-03T21:28:45.289Z,1.57
2018-08-03T21:31:14.872Z,2.57
2018-08-03T21:33:45.544Z,2.37
2018-08-03T21:36:15.812Z,3.00
2018-08-03T21:38:44.711Z,1.37
2018-08-03T21:41:13.624Z,1.77
2018-08-03T21:43:42.588Z,3.30
2018-08-03T21:46:16.436Z,3.40
2018-08-03T21:48:45.343Z,2.90
2018-08-03T21:51:20.864Z,1.17
2018-08-03T21:53:52.269Z,2.73
2018-08-03T21:56:20.725Z,4.20
2018-08-03T21:58:49.642Z,4.33
2018-08-03T22:01:18.122Z,1.60
2018-08-03T22:03:46.950Z,2.20
2018-08-03T22:06:15.795Z,2.63
2018-08-03T22:08:44.691Z,4.27
2018-08-03T22:11:13.148Z,4.70
2018-08-03T22:13:41.991Z,1.87
2018-08-03T22:16:12.100Z,3.80
2018-08-03T22:18:40.933Z,4.03
2018-08-03T22:21:10.014Z,2.50
2018-08-03T22:23:38.899Z,5.13
2018-08-03T22:26:07.754Z,4.00
2018-08-03T22:28:36.608Z,4.23
2018-08-03T22:31:05.486Z,4.70
2018-08-03T22:33:34.324Z,3.77
2018-08-03T22:36:05.692Z,3.60
2018-08-03T22:38:37.032Z,4.97
2018-08-03T22:41:05.895Z,5.33
2018-08-03T22:43:34.744Z,4.23
2018-08-03T22:46:03.629Z,3.73
2018-08-03T22:48:32.630Z,4.17
2018-08-03T22:51:01.464Z,2.57
2018-08-03T22:53:30.307Z,3.37
2018-08-03T22:55:59.145Z,3.03
2018-08-03T22:58:28.090Z,5.00
2018-08-03T23:00:58.673Z,4.13
2018-08-03T23:03:29.805Z,4.43
2018-08-03T23:05:59.351Z,4.03
2018-08-03T23:08:28.387Z,5.10
2018-08-03T23:10:58.174Z,3.83
2018-08-03T23:13:27.076Z,2.10
2018-08-03T23:15:55.980Z,3.47
2018-08-03T23:18:26.077Z,3.70
2018-08-03T23:20:56.332Z,3.13
